Terminal Aerodrome Forecast
Issued by NWS

Home | Current Version | Previous Version | Text Only | Print | Product List | Glossary On
Versions: 1 2 3 4 5 6 7 8 9 10 11 12
000
FTPA31 PHFO 251736
TAFHJH
TAF
PHJH 251736Z 2518/2618 04008KT P6SM SCT030 SCT045
     FM252000 06014G20KT P6SM SCT030 SCT045
     FM260500 06010KT P6SM VCSH SCT030 BKN045
      AMD NOT SKED 2604/2616=

USA.gov is the U.S. government's official web portal to all federal, state and local government web resources and services.